Observations de surface / UK / EGDR

Québec | Canada | États-Unis | France | UK | Europe | Ailleurs

Affichage: Infos & localisation pour EGDR | Aide pour décoder les METARs

EGDR CULDROSE (NAVY) -- UK
Raw surface observations for station EGDR
EGDR 211650Z AUTO 10004KT 9000 // OVC035/// 04/01 Q1023=
EGDR 211550Z AUTO 12005KT 9000 // OVC036/// 05/01 Q1023=
EGDR 211450Z AUTO 09007KT 9000 // BKN035/// 05/00 Q1023=
EGDR 211350Z AUTO 18005KT 9000 // BKN023/// 05/M00 Q1023=
EGDR 211250Z 20003KT 9000 HZ FEW012 OVC024 04/M00 Q1024 WHT NOSIG=
EGDR 211150Z 18003KT 9000 HZ FEW012 OVC024 04/M00 Q1025 WHT NOSIG=
EGDR 211050Z 16004KT 9999 FEW012 SCT022 OVC024 04/00 Q1025 WHT NOSIG=
EGDR 210950Z 14007KT 9999 FEW012 SCT022 BKN024 04/M01 Q1025 WHT NOSIG=
EGDR 210850Z 14005KT 9999 FEW012 SCT022 BKN024 04/M01 Q1025 WHT NOSIG=
EGDR 210750Z 11006KT 7000 HZ FEW012 SCT022 BKN024 04/M01 Q1025 WHT NOSIG=
EGDR 210650Z AUTO 15007KT 9999 // OVC022/// 04/M02 Q1025=
EGDR 210550Z AUTO 14007KT 8000 // OVC021/// 04/M01 Q1025=
EGDR 210450Z AUTO 15010KT 9000 // OVC023/// 04/M01 Q1025=
EGDR 210350Z AUTO 13010KT 8000 // OVC020/// 04/00 Q1026=
EGDR 210250Z AUTO 13010KT 9999 // OVC022/// 04/M01 Q1026=
EGDR 210150Z AUTO 10009KT 9999 // OVC020/// 04/M00 Q1026=
EGDR 210050Z AUTO 12010KT 9999 // OVC022/// 04/M01 Q1026=
EGDR 202350Z AUTO 10012KT 9999 // OVC023/// 05/M01 Q1026=
EGDR 202250Z AUTO 11015KT 9999 // SCT024/// BKN029/// 05/00 Q1026=
EGDR 202150Z AUTO 06011KT 9999 // SCT020/// BKN029/// 04/M01 Q1027=
EGDR 202050Z AUTO 05013KT 9999 // OVC029/// 04/M01 Q1027=
EGDR 201950Z AUTO 05014KT 9999 // OVC025/// 04/M00 Q1027=
EGDR 201850Z AUTO 05010KT 9999 // FEW021/// BKN034/// 04/01 Q1028=
EGDR 201750Z AUTO 06015KT 9999 // BKN023/// 05/02 Q1028=